sensor_id;sensor_type;location;lat;lon;timestamp;pressure;altitude;pressure_sealevel;temperature;humidity
70011;BME280;59543;37.950;-122.338;2023-08-21T00:01:23;100151.66;;;32.54;25.83
70011;BME280;59543;37.950;-122.338;2023-08-21T00:03:49;100154.53;;;32.49;25.86
70011;BME280;59543;37.950;-122.338;2023-08-21T00:06:15;100166.19;;;32.51;26.72
70011;BME280;59543;37.950;-122.338;2023-08-21T00:08:41;100157.78;;;32.09;32.07
70011;BME280;59543;37.950;-122.338;2023-08-21T00:11:08;100165.28;;;31.43;34.21
70011;BME280;59543;37.950;-122.338;2023-08-21T00:13:34;100161.59;;;30.91;35.65
70011;BME280;59543;37.950;-122.338;2023-08-21T00:16:00;100157.38;;;30.51;37.47
70011;BME280;59543;37.950;-122.338;2023-08-21T00:18:26;100152.88;;;30.55;38.04
70011;BME280;59543;37.950;-122.338;2023-08-21T00:20:53;100153.25;;;30.48;37.76
70011;BME280;59543;37.950;-122.338;2023-08-21T00:23:19;100147.28;;;30.60;38.24
70011;BME280;59543;37.950;-122.338;2023-08-21T00:25:46;100135.78;;;30.48;38.41
70011;BME280;59543;37.950;-122.338;2023-08-21T00:28:13;100141.38;;;30.43;39.57
70011;BME280;59543;37.950;-122.338;2023-08-21T00:30:42;100137.28;;;30.35;41.00
70011;BME280;59543;37.950;-122.338;2023-08-21T00:33:08;100140.78;;;29.93;40.48
70011;BME280;59543;37.950;-122.338;2023-08-21T00:35:35;100142.28;;;29.80;40.88
70011;BME280;59543;37.950;-122.338;2023-08-21T00:38:01;100146.41;;;29.48;40.94
70011;BME280;59543;37.950;-122.338;2023-08-21T00:40:28;100146.84;;;29.31;40.27
70011;BME280;59543;37.950;-122.338;2023-08-21T00:42:54;100145.41;;;28.89;41.41
70011;BME280;59543;37.950;-122.338;2023-08-21T00:45:21;100137.09;;;28.89;43.72
70011;BME280;59543;37.950;-122.338;2023-08-21T00:47:48;100137.44;;;28.78;43.79
70011;BME280;59543;37.950;-122.338;2023-08-21T00:50:14;100132.69;;;28.88;43.99
70011;BME280;59543;37.950;-122.338;2023-08-21T00:52:44;100135.84;;;28.66;43.63
70011;BME280;59543;37.950;-122.338;2023-08-21T00:55:11;100130.03;;;28.63;42.42
70011;BME280;59543;37.950;-122.338;2023-08-21T00:57:39;100130.41;;;28.41;42.98
70011;BME280;59543;37.950;-122.338;2023-08-21T01:00:06;100132.34;;;28.30;43.52
70011;BME280;59543;37.950;-122.338;2023-08-21T01:02:36;100127.75;;;27.85;45.41
70011;BME280;59543;37.950;-122.338;2023-08-21T01:05:02;100119.22;;;27.86;44.94
70011;BME280;59543;37.950;-122.338;2023-08-21T01:07:36;100104.28;;;27.82;45.98
70011;BME280;59543;37.950;-122.338;2023-08-21T01:10:48;100102.88;;;27.79;46.22
70011;BME280;59543;37.950;-122.338;2023-08-21T01:16:15;100091.81;;;27.13;47.74
70011;BME280;59543;37.950;-122.338;2023-08-21T01:18:43;100099.31;;;27.18;47.83
70011;BME280;59543;37.950;-122.338;2023-08-21T01:21:11;100086.00;;;27.09;48.19
70011;BME280;59543;37.950;-122.338;2023-08-21T01:23:38;100086.56;;;27.11;48.07
70011;BME280;59543;37.950;-122.338;2023-08-21T01:26:04;100082.13;;;27.10;47.79
70011;BME280;59543;37.950;-122.338;2023-08-21T01:28:32;100076.06;;;27.13;47.62
70011;BME280;59543;37.950;-122.338;2023-08-21T01:31:15;100071.94;;;27.06;48.47
70011;BME280;59543;37.950;-122.338;2023-08-21T01:33:47;100074.72;;;27.11;47.95
70011;BME280;59543;37.950;-122.338;2023-08-21T01:36:15;100076.63;;;26.90;48.34
70011;BME280;59543;37.950;-122.338;2023-08-21T01:38:41;100074.94;;;26.84;48.24
70011;BME280;59543;37.950;-122.338;2023-08-21T01:41:08;100074.41;;;26.87;48.48
70011;BME280;59543;37.950;-122.338;2023-08-21T01:43:34;100078.53;;;26.84;48.48
70011;BME280;59543;37.950;-122.338;2023-08-21T01:46:01;100063.91;;;26.84;48.57
70011;BME280;59543;37.950;-122.338;2023-08-21T01:48:29;100066.66;;;26.84;47.87
70011;BME280;59543;37.950;-122.338;2023-08-21T01:50:55;100064.75;;;26.84;47.92
70011;BME280;59543;37.950;-122.338;2023-08-21T01:53:21;100055.63;;;26.79;47.63
70011;BME280;59543;37.950;-122.338;2023-08-21T01:55:48;100050.59;;;26.65;48.01
70011;BME280;59543;37.950;-122.338;2023-08-21T01:58:14;100055.47;;;26.38;49.32
70011;BME280;59543;37.950;-122.338;2023-08-21T02:00:40;100062.19;;;26.57;49.25
70011;BME280;59543;37.950;-122.338;2023-08-21T02:03:06;100061.56;;;26.40;49.84
70011;BME280;59543;37.950;-122.338;2023-08-21T02:05:38;100053.81;;;26.37;50.04
70011;BME280;59543;37.950;-122.338;2023-08-21T02:08:05;100050.97;;;26.16;50.84
70011;BME280;59543;37.950;-122.338;2023-08-21T02:10:32;100054.53;;;26.07;50.95
70011;BME280;59543;37.950;-122.338;2023-08-21T02:12:58;100044.28;;;25.97;51.35
70011;BME280;59543;37.950;-122.338;2023-08-21T02:15:25;100051.41;;;25.88;51.45
70011;BME280;59543;37.950;-122.338;2023-08-21T02:17:51;100038.84;;;25.65;52.53
70011;BME280;59543;37.950;-122.338;2023-08-21T02:20:17;100041.97;;;25.41;52.73
70011;BME280;59543;37.950;-122.338;2023-08-21T02:22:43;100039.44;;;25.35;53.83
70011;BME280;59543;37.950;-122.338;2023-08-21T02:25:10;100046.59;;;25.36;54.04
70011;BME280;59543;37.950;-122.338;2023-08-21T02:27:36;100048.41;;;25.20;55.49
70011;BME280;59543;37.950;-122.338;2023-08-21T02:30:03;100058.38;;;25.26;55.61
70011;BME280;59543;37.950;-122.338;2023-08-21T02:32:29;100055.56;;;25.16;56.17
70011;BME280;59543;37.950;-122.338;2023-08-21T02:34:55;100054.16;;;25.13;56.49
70011;BME280;59543;37.950;-122.338;2023-08-21T02:37:21;100047.69;;;25.02;56.31
70011;BME280;59543;37.950;-122.338;2023-08-21T02:39:48;100051.13;;;24.87;56.28
70011;BME280;59543;37.950;-122.338;2023-08-21T02:42:14;100049.59;;;24.48;57.70
70011;BME280;59543;37.950;-122.338;2023-08-21T02:44:40;100054.97;;;24.37;58.55
70011;BME280;59543;37.950;-122.338;2023-08-21T02:47:06;100052.28;;;23.99;59.63
70011;BME280;59543;37.950;-122.338;2023-08-21T02:49:33;100052.63;;;23.85;60.27
70011;BME280;59543;37.950;-122.338;2023-08-21T02:51:59;100049.34;;;23.83;60.20
70011;BME280;59543;37.950;-122.338;2023-08-21T02:54:25;100059.34;;;23.56;61.01
70011;BME280;59543;37.950;-122.338;2023-08-21T02:56:51;100065.41;;;23.41;60.53
70011;BME280;59543;37.950;-122.338;2023-08-21T02:59:17;100062.81;;;23.34;60.55
70011;BME280;59543;37.950;-122.338;2023-08-21T03:01:44;100060.50;;;23.26;62.23
70011;BME280;59543;37.950;-122.338;2023-08-21T03:04:10;100056.34;;;23.07;63.82
70011;BME280;59543;37.950;-122.338;2023-08-21T03:06:36;100062.13;;;22.65;63.79
70011;BME280;59543;37.950;-122.338;2023-08-21T03:09:03;100063.81;;;22.66;63.67
70011;BME280;59543;37.950;-122.338;2023-08-21T03:11:29;100075.34;;;22.39;65.04
70011;BME280;59543;37.950;-122.338;2023-08-21T03:13:55;100069.41;;;22.30;66.02
70011;BME280;59543;37.950;-122.338;2023-08-21T03:16:21;100064.06;;;22.12;67.11
70011;BME280;59543;37.950;-122.338;2023-08-21T03:18:59;100053.25;;;22.05;67.95
70011;BME280;59543;37.950;-122.338;2023-08-21T03:21:26;100055.69;;;21.78;68.29
70011;BME280;59543;37.950;-122.338;2023-08-21T03:23:57;100052.19;;;21.83;68.58
70011;BME280;59543;37.950;-122.338;2023-08-21T03:26:25;100051.97;;;21.84;68.24
70011;BME280;59543;37.950;-122.338;2023-08-21T03:28:51;100051.03;;;21.55;70.41
70011;BME280;59543;37.950;-122.338;2023-08-21T03:31:18;100048.78;;;21.64;70.48
70011;BME280;59543;37.950;-122.338;2023-08-21T03:33:44;100038.06;;;21.62;70.90
70011;BME280;59543;37.950;-122.338;2023-08-21T03:36:10;100037.69;;;21.47;72.23
70011;BME280;59543;37.950;-122.338;2023-08-21T03:38:36;100035.56;;;21.61;71.83
70011;BME280;59543;37.950;-122.338;2023-08-21T03:41:03;100034.13;;;21.58;71.37
70011;BME280;59543;37.950;-122.338;2023-08-21T03:43:31;100034.13;;;21.46;72.41
70011;BME280;59543;37.950;-122.338;2023-08-21T03:45:58;100035.22;;;21.57;71.84
70011;BME280;59543;37.950;-122.338;2023-08-21T03:48:24;100037.97;;;21.57;71.06
70011;BME280;59543;37.950;-122.338;2023-08-21T03:50:51;100034.84;;;21.54;71.41
70011;BME280;59543;37.950;-122.338;2023-08-21T03:53:18;100030.44;;;21.53;71.20
70011;BME280;59543;37.950;-122.338;2023-08-21T03:55:44;100031.06;;;21.43;71.71
70011;BME280;59543;37.950;-122.338;2023-08-21T03:58:14;100032.84;;;21.49;71.75
70011;BME280;59543;37.950;-122.338;2023-08-21T04:00:40;100029.63;;;21.40;71.63
70011;BME280;59543;37.950;-122.338;2023-08-21T04:03:07;100033.97;;;21.30;72.46
70011;BME280;59543;37.950;-122.338;2023-08-21T04:05:33;100027.56;;;21.36;72.54
70011;BME280;59543;37.950;-122.338;2023-08-21T04:07:59;100029.34;;;21.30;72.30
70011;BME280;59543;37.950;-122.338;2023-08-21T04:10:26;100032.66;;;21.32;72.26
70011;BME280;59543;37.950;-122.338;2023-08-21T04:12:52;100024.84;;;21.24;72.27
70011;BME280;59543;37.950;-122.338;2023-08-21T04:15:18;100032.56;;;21.15;72.46
70011;BME280;59543;37.950;-122.338;2023-08-21T04:17:44;100030.66;;;21.28;72.37
70011;BME280;59543;37.950;-122.338;2023-08-21T04:20:11;100027.09;;;21.15;72.79
70011;BME280;59543;37.950;-122.338;2023-08-21T04:22:37;100030.91;;;21.38;71.23
70011;BME280;59543;37.950;-122.338;2023-08-21T04:25:04;100037.56;;;21.18;71.65
70011;BME280;59543;37.950;-122.338;2023-08-21T04:27:30;100044.47;;;21.21;71.86
70011;BME280;59543;37.950;-122.338;2023-08-21T04:29:56;100039.53;;;21.11;72.21
70011;BME280;59543;37.950;-122.338;2023-08-21T04:32:22;100027.91;;;21.16;72.13
70011;BME280;59543;37.950;-122.338;2023-08-21T04:34:49;100026.34;;;21.08;73.04
70011;BME280;59543;37.950;-122.338;2023-08-21T04:37:15;100014.94;;;21.11;72.77
70011;BME280;59543;37.950;-122.338;2023-08-21T04:39:41;100017.78;;;21.16;73.42
70011;BME280;59543;37.950;-122.338;2023-08-21T04:42:07;100008.13;;;21.02;74.82
70011;BME280;59543;37.950;-122.338;2023-08-21T04:44:34;100014.44;;;21.02;75.26
70011;BME280;59543;37.950;-122.338;2023-08-21T04:47:19;100015.88;;;21.05;75.67
70011;BME280;59543;37.950;-122.338;2023-08-21T04:49:47;100013.03;;;21.00;76.06
70011;BME280;59543;37.950;-122.338;2023-08-21T04:52:15;100012.66;;;20.96;76.24
70011;BME280;59543;37.950;-122.338;2023-08-21T04:54:42;100002.75;;;20.84;77.21
70011;BME280;59543;37.950;-122.338;2023-08-21T04:57:08;99997.75;;;20.81;77.38
70011;BME280;59543;37.950;-122.338;2023-08-21T04:59:35;99992.78;;;20.89;76.54
70011;BME280;59543;37.950;-122.338;2023-08-21T05:02:02;99995.19;;;20.97;76.19
70011;BME280;59543;37.950;-122.338;2023-08-21T05:04:29;99991.69;;;20.78;75.91
70011;BME280;59543;37.950;-122.338;2023-08-21T05:06:55;100001.09;;;20.83;75.24
70011;BME280;59543;37.950;-122.338;2023-08-21T05:09:21;99992.75;;;20.77;75.49
70011;BME280;59543;37.950;-122.338;2023-08-21T05:11:48;99994.28;;;20.62;76.56
70011;BME280;59543;37.950;-122.338;2023-08-21T05:14:14;99994.03;;;20.63;76.97
70011;BME280;59543;37.950;-122.338;2023-08-21T05:16:40;99994.84;;;20.64;77.11
70011;BME280;59543;37.950;-122.338;2023-08-21T05:19:06;99990.16;;;20.71;77.16
70011;BME280;59543;37.950;-122.338;2023-08-21T05:21:33;100009.75;;;20.68;77.05
70011;BME280;59543;37.950;-122.338;2023-08-21T05:23:59;100000.75;;;20.49;77.86
70011;BME280;59543;37.950;-122.338;2023-08-21T05:26:25;99993.78;;;20.53;77.85
70011;BME280;59543;37.950;-122.338;2023-08-21T05:28:52;99991.19;;;20.40;78.71
70011;BME280;59543;37.950;-122.338;2023-08-21T05:31:18;99985.28;;;20.43;77.93
70011;BME280;59543;37.950;-122.338;2023-08-21T05:33:44;99990.50;;;20.44;78.05
70011;BME280;59543;37.950;-122.338;2023-08-21T05:36:11;99979.69;;;20.38;78.40
70011;BME280;59543;37.950;-122.338;2023-08-21T05:38:37;99985.66;;;20.46;78.20
70011;BME280;59543;37.950;-122.338;2023-08-21T05:41:03;99994.94;;;20.27;79.39
70011;BME280;59543;37.950;-122.338;2023-08-21T05:43:29;99993.03;;;20.27;78.86
70011;BME280;59543;37.950;-122.338;2023-08-21T05:45:56;99991.38;;;20.26;79.09
70011;BME280;59543;37.950;-122.338;2023-08-21T05:48:22;99988.75;;;20.20;78.36
70011;BME280;59543;37.950;-122.338;2023-08-21T05:50:52;99991.31;;;20.15;78.95
70011;BME280;59543;37.950;-122.338;2023-08-21T05:53:18;99985.03;;;20.14;79.02
70011;BME280;59543;37.950;-122.338;2023-08-21T05:55:45;99975.19;;;20.13;79.11
70011;BME280;59543;37.950;-122.338;2023-08-21T05:58:11;99986.94;;;20.14;78.94
70011;BME280;59543;37.950;-122.338;2023-08-21T06:00:38;99990.06;;;19.99;79.86
70011;BME280;59543;37.950;-122.338;2023-08-21T06:03:05;99985.97;;;19.90;80.84
70011;BME280;59543;37.950;-122.338;2023-08-21T06:05:31;99986.56;;;19.73;82.00
70011;BME280;59543;37.950;-122.338;2023-08-21T06:07:57;99987.94;;;19.82;81.63
70011;BME280;59543;37.950;-122.338;2023-08-21T06:10:23;99986.91;;;19.65;82.56
70011;BME280;59543;37.950;-122.338;2023-08-21T06:12:50;99991.13;;;19.79;81.88
70011;BME280;59543;37.950;-122.338;2023-08-21T06:15:17;99991.72;;;19.63;82.55
70011;BME280;59543;37.950;-122.338;2023-08-21T06:17:43;99980.72;;;19.51;83.62
70011;BME280;59543;37.950;-122.338;2023-08-21T06:20:09;99983.59;;;19.56;82.42
70011;BME280;59543;37.950;-122.338;2023-08-21T06:22:36;99986.88;;;19.47;83.37
70011;BME280;59543;37.950;-122.338;2023-08-21T06:25:02;99993.06;;;19.54;83.59
70011;BME280;59543;37.950;-122.338;2023-08-21T06:27:28;99994.94;;;19.35;84.53
70011;BME280;59543;37.950;-122.338;2023-08-21T06:29:54;99989.25;;;19.36;83.66
70011;BME280;59543;37.950;-122.338;2023-08-21T06:32:21;99995.78;;;19.35;83.53
70011;BME280;59543;37.950;-122.338;2023-08-21T06:34:47;99997.56;;;19.23;84.78
70011;BME280;59543;37.950;-122.338;2023-08-21T06:37:13;99996.75;;;19.23;85.08
70011;BME280;59543;37.950;-122.338;2023-08-21T06:39:40;100004.06;;;19.22;84.95
70011;BME280;59543;37.950;-122.338;2023-08-21T06:42:06;100010.59;;;19.21;84.89
70011;BME280;59543;37.950;-122.338;2023-08-21T06:44:32;100010.47;;;19.09;85.30
70011;BME280;59543;37.950;-122.338;2023-08-21T06:46:58;100008.38;;;19.11;85.89
70011;BME280;59543;37.950;-122.338;2023-08-21T06:49:25;100019.16;;;19.00;86.29
70011;BME280;59543;37.950;-122.338;2023-08-21T06:51:51;100021.50;;;18.96;86.92
70011;BME280;59543;37.950;-122.338;2023-08-21T06:54:17;100014.25;;;18.83;88.05
70011;BME280;59543;37.950;-122.338;2023-08-21T06:56:44;100021.22;;;18.72;89.44
70011;BME280;59543;37.950;-122.338;2023-08-21T06:59:10;100027.53;;;18.73;89.58
70011;BME280;59543;37.950;-122.338;2023-08-21T07:01:36;100024.59;;;18.75;89.29
70011;BME280;59543;37.950;-122.338;2023-08-21T07:04:02;100027.88;;;18.83;88.59
70011;BME280;59543;37.950;-122.338;2023-08-21T07:06:30;100023.66;;;18.87;88.71
70011;BME280;59543;37.950;-122.338;2023-08-21T07:08:57;100024.31;;;18.83;89.03
70011;BME280;59543;37.950;-122.338;2023-08-21T07:11:23;100027.78;;;18.58;90.22
70011;BME280;59543;37.950;-122.338;2023-08-21T07:13:49;100037.81;;;18.64;90.13
70011;BME280;59543;37.950;-122.338;2023-08-21T07:16:15;100038.66;;;18.65;90.22
70011;BME280;59543;37.950;-122.338;2023-08-21T07:18:42;100023.19;;;18.59;90.45
70011;BME280;59543;37.950;-122.338;2023-08-21T07:21:08;100011.97;;;18.42;91.10
70011;BME280;59543;37.950;-122.338;2023-08-21T07:23:34;100023.66;;;18.49;90.99
70011;BME280;59543;37.950;-122.338;2023-08-21T07:26:01;100027.06;;;18.44;91.99
70011;BME280;59543;37.950;-122.338;2023-08-21T07:28:27;100043.84;;;18.41;92.05
70011;BME280;59543;37.950;-122.338;2023-08-21T07:30:55;100050.97;;;18.36;93.22
70011;BME280;59543;37.950;-122.338;2023-08-21T07:33:23;100052.28;;;18.26;93.87
70011;BME280;59543;37.950;-122.338;2023-08-21T07:35:57;100057.25;;;18.36;93.16
70011;BME280;59543;37.950;-122.338;2023-08-21T07:38:24;100064.34;;;18.37;93.09
70011;BME280;59543;37.950;-122.338;2023-08-21T07:40:50;100062.97;;;18.21;93.72
70011;BME280;59543;37.950;-122.338;2023-08-21T07:43:16;100068.84;;;18.18;94.12
70011;BME280;59543;37.950;-122.338;2023-08-21T07:45:43;100076.00;;;18.06;94.95
70011;BME280;59543;37.950;-122.338;2023-08-21T07:48:09;100070.94;;;18.16;94.21
70011;BME280;59543;37.950;-122.338;2023-08-21T07:50:35;100088.78;;;18.05;95.06
70011;BME280;59543;37.950;-122.338;2023-08-21T07:53:01;100091.94;;;18.02;94.85
70011;BME280;59543;37.950;-122.338;2023-08-21T07:55:27;100093.81;;;17.95;95.32
70011;BME280;59543;37.950;-122.338;2023-08-21T07:57:54;100089.44;;;17.94;95.81
70011;BME280;59543;37.950;-122.338;2023-08-21T08:00:20;100090.06;;;17.90;95.40
70011;BME280;59543;37.950;-122.338;2023-08-21T08:02:46;100100.13;;;17.82;95.81
70011;BME280;59543;37.950;-122.338;2023-08-21T08:05:12;100095.09;;;17.86;95.51
70011;BME280;59543;37.950;-122.338;2023-08-21T08:07:39;100109.97;;;17.70;96.46
70011;BME280;59543;37.950;-122.338;2023-08-21T08:10:05;100106.81;;;17.73;96.66
70011;BME280;59543;37.950;-122.338;2023-08-21T08:12:31;100109.97;;;17.70;96.74
70011;BME280;59543;37.950;-122.338;2023-08-21T08:14:59;100104.31;;;17.65;97.32
70011;BME280;59543;37.950;-122.338;2023-08-21T08:17:25;100113.50;;;17.51;98.06
70011;BME280;59543;37.950;-122.338;2023-08-21T08:19:51;100113.50;;;17.51;97.71
70011;BME280;59543;37.950;-122.338;2023-08-21T08:22:17;100110.19;;;17.42;98.56
70011;BME280;59543;37.950;-122.338;2023-08-21T08:24:43;100109.75;;;17.32;98.98
70011;BME280;59543;37.950;-122.338;2023-08-21T08:27:10;100111.03;;;17.43;97.97
70011;BME280;59543;37.950;-122.338;2023-08-21T08:29:37;100115.63;;;17.49;97.66
70011;BME280;59543;37.950;-122.338;2023-08-21T08:32:04;100119.59;;;17.46;97.14
70011;BME280;59543;37.950;-122.338;2023-08-21T08:34:30;100122.75;;;17.36;97.76
70011;BME280;59543;37.950;-122.338;2023-08-21T08:36:56;100123.56;;;17.30;97.60
70011;BME280;59543;37.950;-122.338;2023-08-21T08:39:23;100128.56;;;17.27;97.96
70011;BME280;59543;37.950;-122.338;2023-08-21T08:42:03;100137.34;;;17.29;98.04
70011;BME280;59543;37.950;-122.338;2023-08-21T08:44:30;100149.47;;;17.13;99.61
70011;BME280;59543;37.950;-122.338;2023-08-21T08:46:56;100142.38;;;17.19;98.89
70011;BME280;59543;37.950;-122.338;2023-08-21T08:49:23;100151.59;;;17.24;99.14
70011;BME280;59543;37.950;-122.338;2023-08-21T08:51:50;100149.88;;;17.17;98.77
70011;BME280;59543;37.950;-122.338;2023-08-21T08:54:17;100153.63;;;17.02;100.00
70011;BME280;59543;37.950;-122.338;2023-08-21T08:56:45;100153.19;;;16.92;100.00
70011;BME280;59543;37.950;-122.338;2023-08-21T08:59:11;100158.84;;;16.97;100.00
70011;BME280;59543;37.950;-122.338;2023-08-21T09:01:41;100164.22;;;16.77;100.00
70011;BME280;59543;37.950;-122.338;2023-08-21T09:04:07;100175.28;;;16.76;100.00
70011;BME280;59543;37.950;-122.338;2023-08-21T09:06:34;100175.44;;;16.74;100.00
70011;BME280;59543;37.950;-122.338;2023-08-21T09:09:00;100186.28;;;16.67;100.00
70011;BME280;59543;37.950;-122.338;2023-08-21T09:11:27;100176.69;;;16.72;100.00
70011;BME280;59543;37.950;-122.338;2023-08-21T09:13:54;100191.25;;;16.57;100.00
70011;BME280;59543;37.950;-122.338;2023-08-21T09:16:22;100181.88;;;16.66;100.00
70011;BME280;59543;37.950;-122.338;2023-08-21T09:18:50;100178.13;;;16.61;100.00
70011;BME280;59543;37.950;-122.338;2023-08-21T09:21:21;100182.66;;;16.54;100.00
70011;BME280;59543;37.950;-122.338;2023-08-21T09:23:48;100183.97;;;16.64;100.00
70011;BME280;59543;37.950;-122.338;2023-08-21T09:26:19;100188.78;;;16.62;100.00
70011;BME280;59543;37.950;-122.338;2023-08-21T09:28:50;100189.00;;;16.61;100.00
70011;BME280;59543;37.950;-122.338;2023-08-21T09:31:30;100190.69;;;16.68;100.00
70011;BME280;59543;37.950;-122.338;2023-08-21T09:34:02;100195.88;;;16.63;100.00
70011;BME280;59543;37.950;-122.338;2023-08-21T09:36:33;100202.34;;;16.62;100.00
70011;BME280;59543;37.950;-122.338;2023-08-21T09:39:00;100198.16;;;16.60;100.00
70011;BME280;59543;37.950;-122.338;2023-08-21T09:41:26;100198.97;;;16.54;100.00
70011;BME280;59543;37.950;-122.338;2023-08-21T09:43:53;100203.84;;;16.72;100.00
70011;BME280;59543;37.950;-122.338;2023-08-21T09:46:25;100208.59;;;16.63;100.00
70011;BME280;59543;37.950;-122.338;2023-08-21T09:48:52;100210.72;;;16.61;100.00
70011;BME280;59543;37.950;-122.338;2023-08-21T09:51:19;100206.72;;;16.63;100.00
70011;BME280;59543;37.950;-122.338;2023-08-21T09:53:50;100211.72;;;16.60;100.00
70011;BME280;59543;37.950;-122.338;2023-08-21T09:56:20;100209.22;;;16.58;100.00
70011;BME280;59543;37.950;-122.338;2023-08-21T09:58:50;100217.34;;;16.52;100.00
70011;BME280;59543;37.950;-122.338;2023-08-21T10:01:17;100214.84;;;16.57;100.00
70011;BME280;59543;37.950;-122.338;2023-08-21T10:03:46;100221.97;;;16.58;100.00
70011;BME280;59543;37.950;-122.338;2023-08-21T10:06:17;100226.13;;;16.60;100.00
70011;BME280;59543;37.950;-122.338;2023-08-21T10:08:46;100225.28;;;16.53;100.00
70011;BME280;59543;37.950;-122.338;2023-08-21T10:11:17;100230.72;;;16.53;100.00
70011;BME280;59543;37.950;-122.338;2023-08-21T10:13:45;100243.44;;;16.53;100.00
70011;BME280;59543;37.950;-122.338;2023-08-21T10:16:13;100248.03;;;16.52;100.00
70011;BME280;59543;37.950;-122.338;2023-08-21T10:18:43;100247.84;;;16.54;100.00
70011;BME280;59543;37.950;-122.338;2023-08-21T10:21:15;100267.22;;;16.51;100.00
70011;BME280;59543;37.950;-122.338;2023-08-21T10:23:46;100265.97;;;16.46;100.00
70011;BME280;59543;37.950;-122.338;2023-08-21T10:26:13;100269.13;;;16.50;100.00
70011;BME280;59543;37.950;-122.338;2023-08-21T10:31:28;100290.44;;;16.53;100.00
70011;BME280;59543;37.950;-122.338;2023-08-21T10:33:55;100297.25;;;16.42;100.00
70011;BME280;59543;37.950;-122.338;2023-08-21T10:36:37;100293.25;;;16.38;100.00
70011;BME280;59543;37.950;-122.338;2023-08-21T10:39:04;100299.53;;;16.39;100.00
70011;BME280;59543;37.950;-122.338;2023-08-21T10:41:38;100306.78;;;16.32;100.00
70011;BME280;59543;37.950;-122.338;2023-08-21T10:44:06;100311.81;;;16.35;100.00
70011;BME280;59543;37.950;-122.338;2023-08-21T10:46:51;100312.88;;;16.34;100.00
70011;BME280;59543;37.950;-122.338;2023-08-21T10:49:18;100316.16;;;16.29;100.00
70011;BME280;59543;37.950;-122.338;2023-08-21T10:51:44;100327.28;;;16.34;100.00
70011;BME280;59543;37.950;-122.338;2023-08-21T10:54:12;100325.97;;;16.30;100.00
70011;BME280;59543;37.950;-122.338;2023-08-21T10:56:38;100334.81;;;16.39;100.00
70011;BME280;59543;37.950;-122.338;2023-08-21T10:59:05;100349.59;;;16.36;100.00
70011;BME280;59543;37.950;-122.338;2023-08-21T11:01:44;100342.97;;;16.39;100.00
70011;BME280;59543;37.950;-122.338;2023-08-21T11:04:12;100352.28;;;16.30;100.00
70011;BME280;59543;37.950;-122.338;2023-08-21T11:06:38;100351.88;;;16.33;100.00
70011;BME280;59543;37.950;-122.338;2023-08-21T11:09:05;100360.88;;;16.33;100.00
70011;BME280;59543;37.950;-122.338;2023-08-21T11:11:58;100357.09;;;16.28;100.00
70011;BME280;59543;37.950;-122.338;2023-08-21T11:14:27;100372.06;;;16.23;100.00
70011;BME280;59543;37.950;-122.338;2023-08-21T11:16:53;100377.22;;;16.18;100.00
70011;BME280;59543;37.950;-122.338;2023-08-21T11:19:20;100370.97;;;16.18;100.00
70011;BME280;59543;37.950;-122.338;2023-08-21T11:21:51;100374.66;;;16.10;100.00
70011;BME280;59543;37.950;-122.338;2023-08-21T11:24:17;100390.56;;;16.13;100.00
70011;BME280;59543;37.950;-122.338;2023-08-21T11:26:43;100386.91;;;16.06;100.00
70011;BME280;59543;37.950;-122.338;2023-08-21T11:29:10;100391.50;;;16.06;100.00
70011;BME280;59543;37.950;-122.338;2023-08-21T11:31:36;100398.03;;;16.11;100.00
70011;BME280;59543;37.950;-122.338;2023-08-21T11:34:03;100399.59;;;15.99;100.00
70011;BME280;59543;37.950;-122.338;2023-08-21T11:36:29;100406.13;;;16.05;100.00
70011;BME280;59543;37.950;-122.338;2023-08-21T11:39:02;100408.50;;;16.14;100.00
70011;BME280;59543;37.950;-122.338;2023-08-21T11:41:31;100411.34;;;16.06;100.00
70011;BME280;59543;37.950;-122.338;2023-08-21T11:44:02;100426.84;;;16.12;100.00
70011;BME280;59543;37.950;-122.338;2023-08-21T11:46:34;100430.47;;;16.19;100.00
70011;BME280;59543;37.950;-122.338;2023-08-21T11:49:01;100449.22;;;16.14;100.00
70011;BME280;59543;37.950;-122.338;2023-08-21T11:51:28;100449.09;;;16.22;100.00
70011;BME280;59543;37.950;-122.338;2023-08-21T11:53:54;100453.91;;;16.27;100.00
70011;BME280;59543;37.950;-122.338;2023-08-21T11:56:20;100461.44;;;16.25;100.00
70011;BME280;59543;37.950;-122.338;2023-08-21T11:58:47;100470.91;;;16.14;100.00
70011;BME280;59543;37.950;-122.338;2023-08-21T12:01:20;100484.00;;;16.26;100.00
70011;BME280;59543;37.950;-122.338;2023-08-21T12:03:47;100485.47;;;16.28;100.00
70011;BME280;59543;37.950;-122.338;2023-08-21T12:06:21;100499.44;;;16.25;100.00
70011;BME280;59543;37.950;-122.338;2023-08-21T12:08:47;100503.16;;;16.24;100.00
70011;BME280;59543;37.950;-122.338;2023-08-21T12:11:14;100521.88;;;16.34;100.00
70011;BME280;59543;37.950;-122.338;2023-08-21T12:13:40;100522.75;;;16.19;100.00
70011;BME280;59543;37.950;-122.338;2023-08-21T12:16:06;100533.75;;;16.33;100.00
70011;BME280;59543;37.950;-122.338;2023-08-21T12:18:32;100549.03;;;16.34;100.00
70011;BME280;59543;37.950;-122.338;2023-08-21T12:20:59;100546.81;;;16.44;100.00
70011;BME280;59543;37.950;-122.338;2023-08-21T12:23:25;100550.69;;;16.35;100.00
70011;BME280;59543;37.950;-122.338;2023-08-21T12:25:51;100551.84;;;16.26;100.00